createdAt,value
2023-01-20T00:02:14.094Z,0
2023-01-20T00:08:14.189Z,0
2023-01-20T00:09:14.727Z,0
2023-01-20T00:10:14.243Z,0
2023-01-20T00:12:14.018Z,0
2023-01-20T00:24:14.087Z,0
2023-01-20T00:27:14.071Z,0
2023-01-20T00:33:13.998Z,3
2023-01-20T00:34:13.411Z,3
2023-01-20T00:38:14.195Z,3
2023-01-20T00:41:14.440Z,3
2023-01-20T00:44:14.238Z,3
2023-01-20T00:47:13.672Z,0
2023-01-20T00:50:14.177Z,0
2023-01-20T00:55:14.456Z,0
2023-01-20T00:58:14.544Z,0
2023-01-20T01:05:14.280Z,0
2023-01-20T01:07:13.881Z,0
2023-01-20T01:08:14.206Z,0
2023-01-20T01:16:14.560Z,0
2023-01-20T01:17:14.825Z,0
2023-01-20T01:19:13.655Z,0
2023-01-20T01:20:14.153Z,0
2023-01-20T01:27:14.253Z,0
2023-01-20T01:29:14.199Z,0
2023-01-20T01:30:14.881Z,0
2023-01-20T01:35:14.315Z,1
2023-01-20T01:37:14.063Z,1
2023-01-20T01:38:14.302Z,1
2023-01-20T01:40:14.309Z,1
2023-01-20T01:41:14.567Z,1
2023-01-20T01:42:14.109Z,1
2023-01-20T01:43:14.256Z,1
2023-01-20T01:44:14.272Z,1
2023-01-20T01:45:14.365Z,1
2023-01-20T01:48:14.173Z,1
2023-01-20T01:50:14.221Z,1
2023-01-20T01:51:14.212Z,1
2023-01-20T01:52:14.384Z,1
2023-01-20T01:54:13.911Z,1
2023-01-20T01:57:13.675Z,1
2023-01-20T01:58:14.346Z,1
2023-01-20T02:01:13.881Z,1
2023-01-20T02:04:14.667Z,3
2023-01-20T02:05:14.502Z,3
2023-01-20T02:06:13.956Z,3
2023-01-20T02:07:14.340Z,3
2023-01-20T02:10:14.265Z,3
2023-01-20T02:12:14.147Z,3
2023-01-20T02:15:14.247Z,3
2023-01-20T02:16:15.152Z,3
2023-01-20T02:17:14.579Z,3
2023-01-20T02:18:14.296Z,3
2023-01-20T02:20:14.090Z,3
2023-01-20T02:22:13.426Z,3
2023-01-20T02:27:14.083Z,3
2023-01-20T02:29:14.141Z,3
2023-01-20T02:30:14.715Z,3
2023-01-20T02:31:14.159Z,3
2023-01-20T02:32:14.034Z,0
2023-01-20T02:33:14.074Z,0
2023-01-20T02:34:14.417Z,0
2023-01-20T02:36:14.159Z,0
2023-01-20T02:38:14.075Z,0
2023-01-20T02:39:29.028Z,0
2023-01-20T02:41:14.212Z,0
2023-01-20T02:44:14.181Z,0
2023-01-20T02:50:14.081Z,1
2023-01-20T02:57:14.155Z,1
2023-01-20T02:59:14.052Z,1
2023-01-20T03:01:14.958Z,1
2023-01-20T03:03:14.114Z,4
2023-01-20T03:05:14.396Z,4
2023-01-20T03:07:14.276Z,4
2023-01-20T03:14:14.310Z,4
2023-01-20T03:21:14.145Z,5
2023-01-20T03:23:14.098Z,5
2023-01-20T03:29:13.307Z,5
2023-01-20T03:32:13.820Z,3
2023-01-20T03:33:14.133Z,3
2023-01-20T03:35:14.398Z,3
2023-01-20T03:37:13.937Z,3
2023-01-20T03:43:14.242Z,3
2023-01-20T03:45:14.355Z,3
2023-01-20T03:48:14.113Z,4
2023-01-20T03:51:13.684Z,4
2023-01-20T03:52:13.933Z,4
2023-01-20T03:54:14.146Z,4
2023-01-20T03:59:14.072Z,4
2023-01-20T04:01:30.065Z,4
2023-01-20T04:03:14.162Z,3
2023-01-20T04:04:14.560Z,3
2023-01-20T04:08:14.264Z,3
2023-01-20T04:10:14.043Z,3
2023-01-20T04:12:14.107Z,3
2023-01-20T04:14:14.107Z,3
2023-01-20T04:15:14.443Z,3
2023-01-20T04:18:14.146Z,3
2023-01-20T04:25:15.025Z,3
2023-01-20T04:26:14.598Z,3
2023-01-20T04:30:14.291Z,3
2023-01-20T04:31:34.900Z,3
2023-01-20T04:33:14.149Z,4
2023-01-20T04:34:13.925Z,4
2023-01-20T04:35:14.250Z,4
2023-01-20T04:38:14.092Z,4
2023-01-20T04:39:14.142Z,4
2023-01-20T04:44:14.122Z,4
2023-01-20T04:45:14.523Z,4
2023-01-20T04:46:14.166Z,4
2023-01-20T04:49:14.685Z,5
2023-01-20T04:50:14.136Z,5
2023-01-20T04:53:14.822Z,5
2023-01-20T04:55:14.328Z,5
2023-01-20T04:58:14.006Z,5
2023-01-20T05:00:15.005Z,5
2023-01-20T05:01:14.967Z,5
2023-01-20T05:04:14.335Z,3
2023-01-20T05:05:14.519Z,3
2023-01-20T05:07:14.179Z,3
2023-01-20T05:10:14.160Z,3
2023-01-20T05:11:14.980Z,3
2023-01-20T05:12:14.183Z,3
2023-01-20T05:13:14.333Z,3
2023-01-20T05:18:14.271Z,5
2023-01-20T05:19:14.188Z,5
2023-01-20T05:21:13.981Z,5
2023-01-20T05:22:14.080Z,5
2023-01-20T05:24:14.754Z,5
2023-01-20T05:25:14.381Z,5
2023-01-20T05:26:14.262Z,5
2023-01-20T05:28:13.966Z,5
2023-01-20T05:31:14.993Z,5
2023-01-20T05:32:14.663Z,3
2023-01-20T05:33:14.161Z,3
2023-01-20T05:34:14.215Z,3
2023-01-20T05:36:14.034Z,3
2023-01-20T05:37:14.091Z,3
2023-01-20T05:38:14.267Z,3
2023-01-20T05:40:14.234Z,3
2023-01-20T05:44:13.974Z,3
2023-01-20T05:47:14.266Z,1
2023-01-20T05:49:14.220Z,1
2023-01-20T05:54:14.037Z,1
2023-01-20T06:05:15.033Z,5
2023-01-20T06:06:14.832Z,5
2023-01-20T06:07:14.201Z,5
2023-01-20T06:13:14.015Z,5
2023-01-20T06:19:14.291Z,0
2023-01-20T06:22:14.589Z,0
2023-01-20T06:25:15.275Z,0
2023-01-20T06:26:14.148Z,0
2023-01-20T06:28:14.169Z,0
2023-01-20T06:30:14.189Z,0
2023-01-20T06:34:13.959Z,5
2023-01-20T06:36:14.240Z,5
2023-01-20T06:38:14.138Z,5
2023-01-20T06:40:13.040Z,5
2023-01-20T06:43:14.250Z,5
2023-01-20T06:44:14.269Z,5
2023-01-20T06:47:13.964Z,5
2023-01-20T06:49:13.982Z,0
2023-01-20T06:52:14.297Z,0
2023-01-20T06:53:14.951Z,0
2023-01-20T06:56:14.128Z,0
2023-01-20T06:57:14.137Z,0
2023-01-20T06:58:14.496Z,0
2023-01-20T07:00:14.858Z,0
2023-01-20T07:05:14.433Z,3
2023-01-20T07:08:13.227Z,3
2023-01-20T07:09:14.164Z,3
2023-01-20T07:12:14.095Z,3
2023-01-20T07:14:14.141Z,3
2023-01-20T07:15:14.459Z,3
2023-01-20T07:20:14.577Z,0
2023-01-20T07:21:14.004Z,0
2023-01-20T07:25:14.405Z,0
2023-01-20T07:27:13.941Z,0
2023-01-20T07:28:14.140Z,0
2023-01-20T07:30:14.217Z,0
2023-01-20T07:33:14.088Z,8
2023-01-20T07:37:14.220Z,8
2023-01-20T07:39:14.143Z,8
2023-01-20T07:42:14.040Z,8
2023-01-20T07:43:14.289Z,8
2023-01-20T07:51:14.289Z,7
2023-01-20T07:53:14.816Z,7
2023-01-20T07:55:14.557Z,7
2023-01-20T07:56:14.534Z,7
2023-01-20T07:57:14.896Z,7
2023-01-20T07:58:14.205Z,7
2023-01-20T08:00:13.938Z,7
2023-01-20T08:06:14.242Z,5
2023-01-20T08:08:13.972Z,5
2023-01-20T08:09:14.735Z,5
2023-01-20T08:14:14.252Z,5
2023-01-20T08:18:14.157Z,5
2023-01-20T08:20:14.268Z,5
2023-01-20T08:22:13.995Z,5
2023-01-20T08:25:14.268Z,5
2023-01-20T08:29:14.211Z,5
2023-01-20T08:30:14.186Z,5
2023-01-20T08:31:15.651Z,5
2023-01-20T08:37:14.219Z,5
2023-01-20T08:39:14.117Z,5
2023-01-20T08:44:14.296Z,5
2023-01-20T08:47:14.043Z,4
2023-01-20T08:48:14.195Z,4
2023-01-20T08:56:14.532Z,4
2023-01-20T08:57:14.175Z,4
2023-01-20T08:59:14.098Z,4
2023-01-20T09:00:13.784Z,4
2023-01-20T09:06:13.774Z,6
2023-01-20T09:07:14.111Z,6
2023-01-20T09:17:14.167Z,7
2023-01-20T09:22:15.239Z,7
2023-01-20T09:24:14.243Z,7
2023-01-20T09:26:22.742Z,7
2023-01-20T09:27:14.631Z,7
2023-01-20T09:28:16.289Z,7
2023-01-20T09:30:14.025Z,7
2023-01-20T09:31:15.538Z,7
2023-01-20T09:34:15.231Z,9
2023-01-20T09:40:14.550Z,9
2023-01-20T09:42:14.193Z,9
2023-01-20T09:43:14.184Z,9
2023-01-20T09:45:14.415Z,9
2023-01-20T09:46:15.054Z,9
2023-01-20T09:49:14.327Z,1
2023-01-20T09:51:14.043Z,1
2023-01-20T09:54:14.323Z,1
2023-01-20T09:58:14.258Z,1
2023-01-20T10:06:13.826Z,9
2023-01-20T10:07:14.487Z,9
2023-01-20T10:08:14.128Z,9
2023-01-20T10:10:14.329Z,9
2023-01-20T10:12:14.309Z,9
2023-01-20T10:13:14.115Z,9
2023-01-20T10:14:14.005Z,9
2023-01-20T10:17:14.160Z,8
2023-01-20T10:18:14.670Z,8
2023-01-20T10:23:14.151Z,8
2023-01-20T10:29:14.842Z,8
2023-01-20T10:37:14.248Z,5
2023-01-20T10:41:19.405Z,5
2023-01-20T10:42:14.133Z,5
2023-01-20T10:44:14.109Z,5
2023-01-20T10:55:14.049Z,4
2023-01-20T10:57:14.322Z,4
2023-01-20T11:02:25.109Z,7
2023-01-20T11:05:14.910Z,7
2023-01-20T11:08:14.226Z,7
2023-01-20T11:10:14.384Z,7
2023-01-20T11:11:14.268Z,7
2023-01-20T11:12:14.087Z,7
2023-01-20T11:14:14.198Z,7
2023-01-20T11:20:14.477Z,8
2023-01-20T11:22:14.173Z,8
2023-01-20T11:28:14.235Z,8
2023-01-20T11:30:14.416Z,8
2023-01-20T11:32:14.023Z,6
2023-01-20T11:35:14.445Z,6
2023-01-20T11:36:14.125Z,6
2023-01-20T11:40:14.567Z,6
2023-01-20T11:42:14.205Z,6
2023-01-20T11:45:34.279Z,6
2023-01-20T11:46:14.427Z,6
2023-01-20T11:47:14.886Z,6
2023-01-20T11:48:16.238Z,6
2023-01-20T11:49:14.687Z,6
2023-01-20T11:51:14.903Z,6
2023-01-20T11:52:14.713Z,6
2023-01-20T11:53:14.998Z,6
2023-01-20T11:54:14.874Z,6
2023-01-20T11:55:14.368Z,6
2023-01-20T11:56:14.546Z,6
2023-01-20T11:57:14.289Z,6
2023-01-20T11:58:14.555Z,6
2023-01-20T11:59:14.093Z,6
2023-01-20T12:00:14.233Z,6
2023-01-20T12:01:14.624Z,6
2023-01-20T12:02:14.674Z,8
2023-01-20T12:03:14.080Z,8
2023-01-20T12:04:14.986Z,8
2023-01-20T12:05:14.064Z,8
2023-01-20T12:06:14.725Z,8
2023-01-20T12:07:13.903Z,8
2023-01-20T12:08:14.275Z,8
2023-01-20T12:09:14.532Z,8
2023-01-20T12:11:14.888Z,8
2023-01-20T12:12:14.727Z,8
2023-01-20T12:13:14.422Z,8
2023-01-20T12:14:14.768Z,8
2023-01-20T12:15:14.170Z,8
2023-01-20T12:16:14.617Z,8
2023-01-20T12:17:14.768Z,7
2023-01-20T12:19:15.626Z,7
2023-01-20T12:20:15.308Z,7
2023-01-20T12:21:14.333Z,7
2023-01-20T12:22:14.567Z,7
2023-01-20T12:23:14.841Z,7
2023-01-20T12:24:15.841Z,7
2023-01-20T12:25:14.912Z,7
2023-01-20T12:26:14.189Z,7
2023-01-20T12:27:14.509Z,7
2023-01-20T12:28:14.506Z,7
2023-01-20T12:29:14.088Z,7
2023-01-20T12:30:14.973Z,7
2023-01-20T12:31:14.921Z,7
2023-01-20T12:32:15.243Z,8
2023-01-20T12:33:14.385Z,8
2023-01-20T12:34:14.820Z,8
2023-01-20T12:35:14.494Z,8
2023-01-20T12:36:15.649Z,8
2023-01-20T12:37:14.526Z,8
2023-01-20T12:38:14.999Z,8
2023-01-20T12:39:14.315Z,8
2023-01-20T12:40:14.420Z,8
2023-01-20T12:41:14.427Z,8
2023-01-20T12:42:15.640Z,8
2023-01-20T12:43:14.795Z,8
2023-01-20T12:44:14.071Z,8
2023-01-20T12:45:14.737Z,8
2023-01-20T12:46:14.699Z,8
2023-01-20T12:47:15.847Z,9
2023-01-20T12:48:15.183Z,9
2023-01-20T12:49:14.209Z,9
2023-01-20T12:50:14.953Z,9
2023-01-20T12:51:14.229Z,9
2023-01-20T12:52:14.450Z,9
2023-01-20T12:53:16.694Z,9
2023-01-20T12:54:14.299Z,9
2023-01-20T12:55:14.851Z,9
2023-01-20T12:56:14.782Z,9
2023-01-20T12:57:14.815Z,9
2023-01-20T12:58:14.276Z,9
2023-01-20T12:59:17.080Z,9
2023-01-20T13:00:14.568Z,9
2023-01-20T13:01:14.359Z,9
2023-01-20T13:02:14.446Z,7
2023-01-20T13:03:15.391Z,7
2023-01-20T13:04:15.027Z,7
2023-01-20T13:05:16.054Z,7
2023-01-20T13:06:14.691Z,7
2023-01-20T13:07:14.257Z,7
2023-01-20T13:08:14.751Z,7
2023-01-20T13:09:14.137Z,7
2023-01-20T13:10:14.971Z,7
2023-01-20T13:11:14.174Z,7
2023-01-20T13:12:14.474Z,7
2023-01-20T13:13:14.994Z,7
2023-01-20T13:14:14.221Z,7
2023-01-20T13:15:14.920Z,7
2023-01-20T13:16:14.718Z,7
2023-01-20T13:17:14.478Z,8
2023-01-20T13:18:14.526Z,8
2023-01-20T13:19:14.709Z,8
2023-01-20T13:20:14.597Z,8
2023-01-20T13:21:15.371Z,8
2023-01-20T13:23:14.544Z,8
2023-01-20T13:24:15.037Z,8
2023-01-20T13:25:14.750Z,8
2023-01-20T13:26:14.667Z,8
2023-01-20T13:27:14.223Z,8
2023-01-20T13:28:14.238Z,8
2023-01-20T13:29:14.088Z,8
2023-01-20T13:30:14.655Z,8
2023-01-20T13:31:15.185Z,8
2023-01-20T13:32:14.453Z,8
2023-01-20T13:34:14.123Z,8
2023-01-20T13:35:14.811Z,8
2023-01-20T13:36:14.307Z,8
2023-01-20T13:37:14.097Z,8
2023-01-20T13:38:14.466Z,8
2023-01-20T13:39:14.676Z,8
2023-01-20T13:40:14.125Z,8
2023-01-20T13:41:14.564Z,8
2023-01-20T13:42:15.026Z,8
2023-01-20T13:43:14.283Z,8
2023-01-20T13:44:14.579Z,8
2023-01-20T13:45:14.714Z,8
2023-01-20T13:46:14.982Z,8
2023-01-20T13:47:14.932Z,8
2023-01-20T13:48:14.386Z,8
2023-01-20T13:49:14.828Z,8
2023-01-20T13:50:14.180Z,8
2023-01-20T13:52:14.956Z,8
2023-01-20T13:53:14.345Z,8
2023-01-20T13:54:14.599Z,8
2023-01-20T13:55:14.183Z,8
2023-01-20T13:56:14.435Z,8
2023-01-20T13:58:14.607Z,8
2023-01-20T13:59:14.043Z,8
2023-01-20T14:00:14.526Z,8
2023-01-20T14:01:15.067Z,8
2023-01-20T14:02:14.244Z,7
2023-01-20T14:03:14.599Z,7
2023-01-20T14:05:14.986Z,7
2023-01-20T14:06:14.332Z,7
2023-01-20T14:07:14.600Z,7
2023-01-20T14:08:14.815Z,7
2023-01-20T14:10:14.399Z,7
2023-01-20T14:11:14.166Z,7
2023-01-20T14:12:14.482Z,7
2023-01-20T14:13:14.927Z,7
2023-01-20T14:14:14.251Z,7
2023-01-20T14:16:14.771Z,7
2023-01-20T14:17:14.519Z,7
2023-01-20T14:18:14.755Z,7
2023-01-20T14:19:14.258Z,7
2023-01-20T14:20:15.325Z,7
2023-01-20T14:22:14.974Z,7
2023-01-20T14:23:14.714Z,7
2023-01-20T14:24:13.888Z,7
2023-01-20T14:25:14.755Z,7
2023-01-20T14:26:14.863Z,7
2023-01-20T14:28:14.115Z,7
2023-01-20T14:29:14.783Z,7
2023-01-20T14:30:14.693Z,7
2023-01-20T14:31:14.855Z,7
2023-01-20T14:32:14.565Z,6
2023-01-20T14:33:14.008Z,6
2023-01-20T14:34:14.270Z,6
2023-01-20T14:35:14.850Z,6
2023-01-20T14:36:13.996Z,6
2023-01-20T14:37:14.387Z,6
2023-01-20T14:38:14.886Z,6
2023-01-20T14:40:14.848Z,6
2023-01-20T14:41:14.104Z,6
2023-01-20T14:42:14.841Z,6
2023-01-20T14:43:14.191Z,6
2023-01-20T14:44:14.659Z,6
2023-01-20T14:46:14.640Z,6
2023-01-20T14:47:14.452Z,5
2023-01-20T14:48:33.212Z,5
2023-01-20T14:49:14.498Z,5
2023-01-20T14:50:15.614Z,5
2023-01-20T14:51:17.156Z,5
2023-01-20T14:52:14.142Z,5
2023-01-20T14:53:14.520Z,5
2023-01-20T14:54:14.814Z,5
2023-01-20T14:55:14.206Z,5
2023-01-20T14:56:14.534Z,5
2023-01-20T14:57:16.533Z,5
2023-01-20T14:58:14.540Z,5
2023-01-20T14:59:15.119Z,5
2023-01-20T15:00:14.735Z,5
2023-01-20T15:01:14.157Z,5
2023-01-20T15:02:14.466Z,4
2023-01-20T15:03:24.307Z,4
2023-01-20T15:04:14.260Z,4
2023-01-20T15:05:14.911Z,4
2023-01-20T15:06:14.090Z,4
2023-01-20T15:07:14.663Z,4
2023-01-20T15:08:14.903Z,4
2023-01-20T15:10:15.025Z,4
2023-01-20T15:11:14.222Z,4
2023-01-20T15:12:14.694Z,4
2023-01-20T15:13:14.018Z,4
2023-01-20T15:14:14.736Z,4
2023-01-20T15:15:14.994Z,4
2023-01-20T15:16:15.064Z,4
2023-01-20T15:17:14.816Z,5
2023-01-20T15:18:14.361Z,5
2023-01-20T15:20:14.653Z,5
2023-01-20T15:21:28.921Z,5
2023-01-20T15:22:14.797Z,5
2023-01-20T15:23:14.477Z,5
2023-01-20T15:24:14.260Z,5
2023-01-20T15:25:14.696Z,5
2023-01-20T15:26:14.145Z,5
2023-01-20T15:27:14.580Z,5
2023-01-20T15:28:14.860Z,5
2023-01-20T15:29:14.413Z,5
2023-01-20T15:31:15.457Z,5
2023-01-20T15:32:14.259Z,4
2023-01-20T15:33:14.578Z,4
2023-01-20T15:34:14.947Z,4
2023-01-20T15:35:14.214Z,4
2023-01-20T15:36:14.811Z,4
2023-01-20T15:37:14.031Z,4
2023-01-20T15:38:14.469Z,4
2023-01-20T15:39:14.878Z,4
2023-01-20T15:40:14.716Z,4
2023-01-20T15:42:14.173Z,4
2023-01-20T15:43:14.661Z,4
2023-01-20T15:44:14.257Z,4
2023-01-20T15:45:14.569Z,4
2023-01-20T15:46:14.708Z,4
2023-01-20T15:47:14.769Z,4
2023-01-20T15:48:14.318Z,4
2023-01-20T15:49:14.556Z,4
2023-01-20T15:50:14.247Z,4
2023-01-20T15:51:14.827Z,4
2023-01-20T15:52:14.454Z,4
2023-01-20T15:53:16.808Z,4
2023-01-20T15:54:14.109Z,4
2023-01-20T15:55:14.623Z,4
2023-01-20T15:56:14.967Z,4
2023-01-20T15:57:14.484Z,4
2023-01-20T15:58:14.965Z,4
2023-01-20T16:00:14.655Z,4
2023-01-20T16:01:14.213Z,4
2023-01-20T16:02:14.964Z,4
2023-01-20T16:03:14.748Z,4
2023-01-20T16:04:14.208Z,4
2023-01-20T16:06:14.269Z,4
2023-01-20T16:07:14.470Z,4
2023-01-20T16:08:14.760Z,4
2023-01-20T16:09:14.401Z,4
2023-01-20T16:10:14.795Z,4
2023-01-20T16:12:14.101Z,4
2023-01-20T16:13:14.432Z,4
2023-01-20T16:14:15.183Z,4
2023-01-20T16:15:14.386Z,4
2023-01-20T16:16:15.144Z,4
2023-01-20T16:17:14.087Z,6
2023-01-20T16:18:14.843Z,6
2023-01-20T16:19:14.157Z,6
2023-01-20T16:20:15.052Z,6
2023-01-20T16:21:14.844Z,6
2023-01-20T16:22:14.364Z,6
2023-01-20T16:23:14.764Z,6
2023-01-20T16:24:14.082Z,6
2023-01-20T16:25:14.541Z,6
2023-01-20T16:26:14.056Z,6
2023-01-20T16:28:14.612Z,6
2023-01-20T16:29:15.159Z,6
2023-01-20T16:30:14.781Z,6
2023-01-20T16:31:15.029Z,6
2023-01-20T16:32:17.113Z,5
2023-01-20T16:33:14.303Z,5
2023-01-20T16:34:14.762Z,5
2023-01-20T16:35:14.171Z,5
2023-01-20T16:36:14.688Z,5
2023-01-20T16:37:14.116Z,5
2023-01-20T16:39:14.173Z,5
2023-01-20T16:40:14.864Z,5
2023-01-20T16:41:13.930Z,5
2023-01-20T16:42:14.324Z,5
2023-01-20T16:44:14.218Z,5
2023-01-20T16:45:14.619Z,5
2023-01-20T16:46:14.954Z,5
2023-01-20T16:47:14.777Z,4
2023-01-20T16:48:14.443Z,4
2023-01-20T16:49:14.916Z,4
2023-01-20T16:50:14.613Z,4
2023-01-20T16:51:15.113Z,4
2023-01-20T16:52:14.131Z,4
2023-01-20T16:53:14.602Z,4
2023-01-20T16:54:14.025Z,4
2023-01-20T16:57:14.435Z,4
2023-01-20T16:58:15.083Z,4
2023-01-20T16:59:14.295Z,4
2023-01-20T17:00:16.858Z,4
2023-01-20T17:01:14.765Z,4
2023-01-20T17:02:15.157Z,3
2023-01-20T17:03:14.236Z,3
2023-01-20T17:04:14.575Z,3
2023-01-20T17:05:15.030Z,3
2023-01-20T17:06:17.396Z,3
2023-01-20T17:07:14.029Z,3
2023-01-20T17:08:14.399Z,3
2023-01-20T17:09:14.391Z,3
2023-01-20T17:10:15.094Z,3
2023-01-20T17:11:14.701Z,3
2023-01-20T17:12:14.402Z,3
2023-01-20T17:13:14.490Z,3
2023-01-20T17:14:14.914Z,3
2023-01-20T17:15:14.121Z,3
2023-01-20T17:16:15.020Z,3
2023-01-20T17:17:14.333Z,3
2023-01-20T17:18:14.973Z,3
2023-01-20T17:19:15.117Z,3
2023-01-20T17:20:14.884Z,3
2023-01-20T17:21:14.078Z,3
2023-01-20T17:22:14.980Z,3
2023-01-20T17:23:15.188Z,3
2023-01-20T17:24:14.374Z,3
2023-01-20T17:25:16.211Z,3
2023-01-20T17:26:14.335Z,3
2023-01-20T17:27:14.577Z,3
2023-01-20T17:28:14.044Z,3
2023-01-20T17:29:14.508Z,3
2023-01-20T17:31:14.943Z,3
2023-01-20T17:33:14.246Z,3
2023-01-20T17:34:14.579Z,3
2023-01-20T17:35:14.018Z,3
2023-01-20T17:36:14.429Z,3
2023-01-20T17:37:14.833Z,3
2023-01-20T17:38:14.514Z,3
2023-01-20T17:39:14.756Z,3
2023-01-20T17:40:14.531Z,3
2023-01-20T17:41:14.501Z,3
2023-01-20T17:42:15.013Z,3
2023-01-20T17:43:15.061Z,3
2023-01-20T17:44:14.522Z,3
2023-01-20T17:45:14.681Z,3
2023-01-20T17:46:14.787Z,3
2023-01-20T17:47:14.888Z,4
2023-01-20T17:48:17.012Z,4
2023-01-20T17:49:14.248Z,4
2023-01-20T17:50:14.457Z,4
2023-01-20T17:51:14.815Z,4
2023-01-20T17:52:14.079Z,4
2023-01-20T17:53:14.444Z,4
2023-01-20T17:54:16.274Z,4
2023-01-20T17:55:15.813Z,4
2023-01-20T17:56:25.087Z,4
2023-01-20T17:57:14.024Z,4
2023-01-20T17:58:14.575Z,4
2023-01-20T17:59:14.055Z,4
2023-01-20T18:00:14.715Z,4
2023-01-20T18:01:14.368Z,4
2023-01-20T18:02:14.894Z,4
2023-01-20T18:03:14.192Z,4
2023-01-20T18:04:14.620Z,4
2023-01-20T18:05:14.159Z,4
2023-01-20T18:06:15.082Z,4
2023-01-20T18:07:14.076Z,4
2023-01-20T18:08:14.725Z,4
2023-01-20T18:09:14.088Z,4
2023-01-20T18:10:14.392Z,4
2023-01-20T18:11:13.985Z,4
2023-01-20T18:12:14.290Z,4
2023-01-20T18:13:14.160Z,4
2023-01-20T18:15:14.779Z,4
2023-01-20T18:16:14.633Z,4
2023-01-20T18:17:14.434Z,5
2023-01-20T18:18:14.439Z,5
2023-01-20T18:19:14.113Z,5
2023-01-20T18:20:14.725Z,5
2023-01-20T18:21:14.576Z,5
2023-01-20T18:22:14.999Z,5
2023-01-20T18:23:14.332Z,5
2023-01-20T18:24:14.839Z,5
2023-01-20T18:25:14.282Z,5
2023-01-20T18:26:14.773Z,5
2023-01-20T18:27:13.958Z,5
2023-01-20T18:28:14.697Z,5
2023-01-20T18:29:14.246Z,5
2023-01-20T18:30:15.103Z,5
2023-01-20T18:31:15.223Z,5
2023-01-20T18:32:14.847Z,4
2023-01-20T18:33:14.715Z,4
2023-01-20T18:34:14.199Z,4
2023-01-20T18:35:14.679Z,4
2023-01-20T18:36:14.927Z,4
2023-01-20T18:37:14.433Z,4
2023-01-20T18:38:14.792Z,4
2023-01-20T18:39:14.225Z,4
2023-01-20T18:40:14.868Z,4
2023-01-20T18:41:14.113Z,4
2023-01-20T18:42:14.153Z,4
2023-01-20T18:43:14.576Z,4
2023-01-20T18:44:14.348Z,4
2023-01-20T18:45:14.647Z,4
2023-01-20T18:46:14.342Z,4
2023-01-20T18:47:14.568Z,4
2023-01-20T18:48:14.927Z,4
2023-01-20T18:50:14.740Z,4
2023-01-20T18:51:15.121Z,4
2023-01-20T18:52:14.982Z,4
2023-01-20T18:53:14.282Z,4
2023-01-20T18:54:14.714Z,4
2023-01-20T18:55:14.309Z,4
2023-01-20T18:56:14.661Z,4
2023-01-20T18:58:14.411Z,4
2023-01-20T18:59:14.870Z,4
2023-01-20T19:00:14.473Z,4
2023-01-20T19:01:15.283Z,4
2023-01-20T19:02:14.491Z,5
2023-01-20T19:03:14.780Z,5
2023-01-20T19:04:14.563Z,5
2023-01-20T19:05:13.997Z,5
2023-01-20T19:06:14.281Z,5
2023-01-20T19:07:14.370Z,5
2023-01-20T19:08:14.709Z,5
2023-01-20T19:09:14.375Z,5
2023-01-20T19:10:14.749Z,5
2023-01-20T19:11:14.996Z,5
2023-01-20T19:12:14.306Z,5
2023-01-20T19:13:14.758Z,5
2023-01-20T19:14:14.086Z,5
2023-01-20T19:15:14.461Z,5
2023-01-20T19:16:14.618Z,5
2023-01-20T19:17:14.488Z,6
2023-01-20T19:18:13.863Z,6
2023-01-20T19:19:14.455Z,6
2023-01-20T19:20:14.785Z,6
2023-01-20T19:21:14.990Z,6
2023-01-20T19:22:14.423Z,6
2023-01-20T19:23:14.894Z,6
2023-01-20T19:24:14.939Z,6
2023-01-20T19:25:14.331Z,6
2023-01-20T19:26:14.663Z,6
2023-01-20T19:27:14.240Z,6
2023-01-20T19:28:14.957Z,6
2023-01-20T19:29:14.405Z,6
2023-01-20T19:30:15.162Z,6
2023-01-20T19:31:15.804Z,6
2023-01-20T19:32:14.506Z,6
2023-01-20T19:33:14.810Z,6
2023-01-20T19:34:14.614Z,6
2023-01-20T19:35:14.075Z,6
2023-01-20T19:36:14.594Z,6
2023-01-20T19:37:14.187Z,6
2023-01-20T19:38:14.513Z,6
2023-01-20T19:39:14.107Z,6
2023-01-20T19:40:14.890Z,6
2023-01-20T19:41:14.007Z,6
2023-01-20T19:42:14.427Z,6
2023-01-20T19:43:14.254Z,6
2023-01-20T19:44:14.401Z,6
2023-01-20T19:45:14.728Z,6
2023-01-20T19:46:14.295Z,6
2023-01-20T19:47:15.124Z,7
2023-01-20T19:48:14.286Z,7
2023-01-20T19:49:15.202Z,7
2023-01-20T19:50:14.534Z,7
2023-01-20T19:51:15.072Z,7
2023-01-20T19:52:14.060Z,7
2023-01-20T19:53:14.550Z,7
2023-01-20T19:54:14.825Z,7
2023-01-20T19:55:14.295Z,7
2023-01-20T19:56:14.872Z,7
2023-01-20T19:57:14.355Z,7
2023-01-20T19:58:14.604Z,7
2023-01-20T19:59:14.116Z,7
2023-01-20T20:00:14.725Z,7
2023-01-20T20:01:14.933Z,7
2023-01-20T20:02:14.233Z,6
2023-01-20T20:03:14.496Z,6
2023-01-20T20:04:14.084Z,6
2023-01-20T20:05:14.453Z,6
2023-01-20T20:06:14.666Z,6
2023-01-20T20:07:14.282Z,6
2023-01-20T20:08:14.677Z,6
2023-01-20T20:09:14.030Z,6
2023-01-20T20:10:14.822Z,6
2023-01-20T20:11:14.847Z,6
2023-01-20T20:12:14.252Z,6
2023-01-20T20:13:14.665Z,6
2023-01-20T20:14:14.777Z,6
2023-01-20T20:15:15.038Z,6
2023-01-20T20:16:14.681Z,6
2023-01-20T20:17:14.926Z,6
2023-01-20T20:18:14.801Z,6
2023-01-20T20:19:14.313Z,6
2023-01-20T20:20:15.160Z,6
2023-01-20T20:21:14.251Z,6
2023-01-20T20:22:14.594Z,6
2023-01-20T20:23:13.918Z,6
2023-01-20T20:24:14.466Z,6
2023-01-20T20:26:14.260Z,6
2023-01-20T20:27:14.896Z,6
2023-01-20T20:28:14.173Z,6
2023-01-20T20:29:14.566Z,6
2023-01-20T20:30:14.245Z,6
2023-01-20T20:31:15.648Z,6
2023-01-20T20:32:14.488Z,7
2023-01-20T20:33:14.533Z,7
2023-01-20T20:34:14.197Z,7
2023-01-20T20:35:14.544Z,7
2023-01-20T20:36:14.921Z,7
2023-01-20T20:37:14.361Z,7
2023-01-20T20:38:15.043Z,7
2023-01-20T20:39:14.164Z,7
2023-01-20T20:40:15.058Z,7
2023-01-20T20:41:14.194Z,7
2023-01-20T20:42:14.366Z,7
2023-01-20T20:43:14.808Z,7
2023-01-20T20:44:14.127Z,7
2023-01-20T20:45:14.719Z,7
2023-01-20T20:46:14.523Z,7
2023-01-20T20:47:14.771Z,12
2023-01-20T20:48:14.199Z,12
2023-01-20T20:49:14.601Z,12
2023-01-20T20:50:15.141Z,12
2023-01-20T20:51:14.508Z,12
2023-01-20T20:52:14.945Z,12
2023-01-20T20:53:14.309Z,12
2023-01-20T20:54:14.778Z,12
2023-01-20T20:56:14.272Z,12
2023-01-20T20:57:14.831Z,12
2023-01-20T20:58:14.395Z,12
2023-01-20T21:00:15.066Z,12
2023-01-20T21:02:15.209Z,5
2023-01-20T21:03:14.508Z,5
2023-01-20T21:04:14.804Z,5
2023-01-20T21:05:14.328Z,5
2023-01-20T21:06:14.571Z,5
2023-01-20T21:07:14.023Z,5
2023-01-20T21:08:14.367Z,5
2023-01-20T21:09:14.673Z,5
2023-01-20T21:10:14.574Z,5
2023-01-20T21:11:14.006Z,5
2023-01-20T21:12:14.417Z,5
2023-01-20T21:13:14.800Z,5
2023-01-20T21:14:14.321Z,5
2023-01-20T21:15:14.685Z,5
2023-01-20T21:16:14.700Z,5
2023-01-20T21:17:14.845Z,6
2023-01-20T21:18:14.199Z,6
2023-01-20T21:19:14.698Z,6
2023-01-20T21:20:14.397Z,6
2023-01-20T21:21:14.768Z,6
2023-01-20T21:22:14.031Z,6
2023-01-20T21:23:14.560Z,6
2023-01-20T21:24:14.239Z,6
2023-01-20T21:25:14.451Z,6
2023-01-20T21:26:14.510Z,6
2023-01-20T21:27:14.644Z,6
2023-01-20T21:28:14.196Z,6
2023-01-20T21:29:14.592Z,6
2023-01-20T21:30:14.798Z,6
2023-01-20T21:31:14.954Z,6
2023-01-20T21:32:14.717Z,3
2023-01-20T21:33:14.276Z,3
2023-01-20T21:34:14.553Z,3
2023-01-20T21:35:14.977Z,3
2023-01-20T21:36:14.334Z,3
2023-01-20T21:37:14.909Z,3
2023-01-20T21:38:14.143Z,3
2023-01-20T21:39:14.420Z,3
2023-01-20T21:40:14.288Z,3
2023-01-20T21:41:14.356Z,3
2023-01-20T21:42:14.821Z,3
2023-01-20T21:43:13.952Z,3
2023-01-20T21:44:14.921Z,3
2023-01-20T21:45:14.292Z,3
2023-01-20T21:46:14.885Z,3
2023-01-20T21:47:14.471Z,6
2023-01-20T21:48:14.813Z,6
2023-01-20T21:49:14.363Z,6
2023-01-20T21:50:14.755Z,6
2023-01-20T21:51:14.942Z,6
2023-01-20T21:52:14.224Z,6
2023-01-20T21:53:15.025Z,6
2023-01-20T21:54:14.270Z,6
2023-01-20T21:55:14.681Z,6
2023-01-20T21:56:14.305Z,6
2023-01-20T21:57:14.862Z,6
2023-01-20T21:58:14.298Z,6
2023-01-20T21:59:14.784Z,6
2023-01-20T22:00:14.595Z,6
2023-01-20T22:01:14.678Z,6
2023-01-20T22:02:15.405Z,8
2023-01-20T22:03:14.355Z,8
2023-01-20T22:04:14.397Z,8
2023-01-20T22:05:14.840Z,8
2023-01-20T22:06:14.184Z,8
2023-01-20T22:07:14.864Z,8
2023-01-20T22:08:14.161Z,8
2023-01-20T22:09:14.684Z,8
2023-01-20T22:10:14.092Z,8
2023-01-20T22:11:14.770Z,8
2023-01-20T22:12:14.106Z,8
2023-01-20T22:13:14.270Z,8
2023-01-20T22:14:13.956Z,8
2023-01-20T22:15:14.434Z,8
2023-01-20T22:16:14.202Z,8
2023-01-20T22:17:14.446Z,5
2023-01-20T22:18:14.837Z,5
2023-01-20T22:19:14.811Z,5
2023-01-20T22:20:14.361Z,5
2023-01-20T22:21:14.382Z,5
2023-01-20T22:22:15.256Z,5
2023-01-20T22:23:14.941Z,5
2023-01-20T22:24:14.446Z,5
2023-01-20T22:25:14.687Z,5
2023-01-20T22:26:14.120Z,5
2023-01-20T22:27:14.511Z,5
2023-01-20T22:28:15.093Z,5
2023-01-20T22:29:14.423Z,5
2023-01-20T22:30:15.118Z,5
2023-01-20T22:31:15.053Z,5
2023-01-20T22:32:14.109Z,4
2023-01-20T22:33:14.334Z,4
2023-01-20T22:34:16.663Z,4
2023-01-20T22:35:14.622Z,4
2023-01-20T22:36:15.021Z,4
2023-01-20T22:37:14.438Z,4
2023-01-20T22:38:14.894Z,4
2023-01-20T22:39:14.366Z,4
2023-01-20T22:40:14.901Z,4
2023-01-20T22:41:14.314Z,4